Antholz Obertal
04.09.2026, 18:45















57 Stazions meteo
| Favoric | Stazion | Autëza | Data - ëura |
t (°C) |
N (mm) |
ff (km/h) |
bb (km/h) |
dd |
rH (%) |
p (hPa) |
sd (h) |
EG (W/m²) |
|---|---|---|---|---|---|---|---|---|---|---|---|---|
| Antholz Obertal | 1327 m | 04.09.2026, 18:45 | 18.5 | 0.0 | 3.2 | 5.4 | NO(36.8°) | 71 | 1015.4 | 09:29 | 22 | |
| Auer | 254 m | 04.09.2026, 18:45 | 31.1 | 0.0 | - | - | - | 46 | 1013.6 | 07:46 | 108 | |
| Barbian Kollmann | 463 m | 04.09.2026, 18:45 | 24.6 | 0.0 | 2.5 | 7.2 | N(360°) | 62 | 1013.5 | 08:12 | 27 | |
| Branzoll | 227 m | 04.09.2026, 18:45 | 30.4 | 0.0 | 11.2 | 18.7 | S(184°) | 45 | 1012.7 | 09:45 | 57 | |
| Bulsan | 245 m | 04.09.2026, 18:45 | 32.2 | 0.0 | 2.5 | 9.4 | S(181.5°) | 36 | 1013.0 | 11:14 | 129 | |
| Burnech | 831 m | 04.09.2026, 18:45 | 28.6 | 0.0 | 13.7 | 18.7 | NW(309.6°) | 30 | 1012.5 | 11:01 | 150 | |
| Corvara | 1530 m | 04.09.2026, 18:45 | 20.4 | 0.0 | 7.2 | 11.5 | S(173°) | 57 | 1014.0 | 09:45 | 156 | |
| Deutschnofen | 1470 m | 04.09.2026, 18:45 | 21.6 | 0.0 | 10.4 | 16.9 | SV(226°) | 63 | 1013.6 | 11:04 | 181 | |
| Franzensfeste Grasstein | 833 m | 04.09.2026, 18:45 | 22.1 | 0.0 | 0.4 | 3.6 | SV(228.5°) | 53 | 1013.3 | - | - | |
| Gargazon | 253 m | 04.09.2026, 18:45 | 31.3 | 0.0 | 6.8 | 11.5 | SO(144.6°) | 43 | 1013.6 | 10:05 | 99 | |
| Hintermartell | 1714 m | 04.09.2026, 18:45 | 15.3 | 0.0 | 2.2 | 5.4 | S(187.7°) | 74 | 1020.3 | 06:37 | 17 | |
| Jenesien | 972 m | 04.09.2026, 18:45 | 25.6 | 0.0 | 5.4 | 13.7 | SO(150.6°) | 51 | 1014.2 | 09:48 | 79 | |
| Jouf de Ciarej | 1713 m | 04.09.2026, 18:45 | 21.0 | 0.0 | 7.6 | 10.8 | SV(242°) | 59 | 1013.1 | 10:43 | 157 | |
| Kaltern Oberplanitzing | 492 m | 04.09.2026, 18:45 | 27.1 | 0.0 | 8.3 | 12.2 | SV(209.3°) | 50 | 1014.7 | 09:41 | 29 | |
| Laas Eyrs | 874 m | 04.09.2026, 18:45 | 25.7 | 0.0 | 11.9 | 18.0 | O(99.9°) | 45 | 1013.3 | 10:39 | 30 | |
| Laimburg | 224 m | 04.09.2026, 18:45 | 30.4 | 0.0 | 11.9 | 21.2 | S(172.1°) | 42 | 1015.3 | 09:51 | 35 | |
| Langtaufers Grub | 1844 m | 04.09.2026, 18:45 | 20.4 | 0.0 | 16.6 | 20.9 | SV(240.2°) | 49 | 1012.1 | 10:26 | 168 | |
| Maran | 333 m | 04.09.2026, 18:45 | 28.9 | 0.0 | 2.9 | 6.5 | V(276°) | 58 | 1013.4 | 09:56 | 39 | |
| Marienberg | 1312 m | 04.09.2026, 18:45 | 21.8 | 0.0 | - | - | - | 48 | 1014.0 | 08:38 | 23 | |
| Mühlwald | 1140 m | 04.09.2026, 18:45 | 20.6 | 0.0 | - | - | - | 58 | 1015.5 | - | - | |
| Naturns | 537 m | 04.09.2026, 18:45 | 30.2 | 0.0 | 13.0 | 23.4 | NO(51.7°) | 33 | 1013.6 | 10:51 | 152 | |
| Obervintl | 747 m | 04.09.2026, 18:45 | 26.8 | 0.0 | 5.0 | 8.6 | S(195.7°) | 43 | 1013.6 | 11:03 | 139 | |
| Pens | 1452 m | 04.09.2026, 18:45 | 21.8 | 0.0 | - | - | - | 58 | 1014.5 | - | - | |
| Persenon | 585 m | 04.09.2026, 18:45 | 26.0 | 0.0 | 11.2 | 14.4 | S(193.3°) | 54 | 1013.3 | 09:00 | 28 | |
| Pfelders | 1622 m | 04.09.2026, 18:45 | 17.2 | 0.0 | 10.8 | 13.0 | V(255.2°) | 68 | 1016.5 | 09:52 | 22 | |
| Pfitsch St. Jakob | 1438 m | 04.09.2026, 18:45 | 20.8 | 0.0 | 1.8 | 5.8 | S(185.3°) | 55 | 1013.6 | 09:52 | 151 | |
| Pflersch | 1152 m | 04.09.2026, 18:45 | 20.6 | 0.0 | 4.0 | 7.2 | NW(304.1°) | 64 | 1014.6 | 07:39 | 18 | |
| Pfunders | 1169 m | 04.09.2026, 18:45 | 19.6 | 0.0 | 3.6 | 11.5 | SV(244.9°) | 62 | 1014.4 | 07:48 | 18 | |
| Platt in Passeier | 1143 m | 04.09.2026, 18:45 | 20.3 | 0.0 | 6.1 | 9.0 | S(192°) | 66 | 1015.5 | 10:54 | 25 | |
| Prettau | 1448 m | 04.09.2026, 18:45 | 20.1 | 0.0 | 5.0 | 9.7 | SV(231.2°) | 57 | 1013.8 | 09:11 | 25 | |
| Radein | 1550 m | 04.09.2026, 18:45 | 20.9 | 0.0 | 12.6 | 20.2 | SV(211°) | 61 | 1015.4 | 06:49 | 30 | |
| Rein in Taufers | 1562 m | 04.09.2026, 18:45 | 18.0 | 0.0 | 6.1 | 9.4 | SO(130.7°) | 66 | 1015.1 | 09:43 | 76 | |
| Ridnaun | 1365 m | 04.09.2026, 18:45 | 20.8 | 0.0 | - | - | - | 55 | 1017.6 | - | - | |
| Ritten Siffian | 989 m | 04.09.2026, 18:45 | 25.7 | 0.0 | 19.1 | 27.7 | V(275.3°) | 47 | 1013.6 | 10:29 | 133 | |
| S. Martin de Tor | 1151 m | 04.09.2026, 18:45 | 22.3 | 0.0 | 2.5 | 8.6 | V(255.7°) | 51 | 1016.3 | 09:50 | 28 | |
| Salurn | 214 m | 04.09.2026, 18:45 | 29.6 | 0.0 | 11.5 | 19.1 | V(279.8°) | 44 | 1015.1 | 03:14 | 36 | |
| Sand i.T. Mühlen | 850 m | 04.09.2026, 18:45 | 25.3 | 0.0 | 6.8 | 13.0 | V(255.8°) | 53 | 1013.2 | 09:16 | 23 | |
| Sarnthein | 970 m | 04.09.2026, 18:45 | 22.4 | 0.0 | 4.7 | 11.5 | V(275°) | 62 | 1015.4 | 09:51 | 25 | |
| Schnals Vernagt | 1697 m | 04.09.2026, 18:45 | 20.0 | 0.0 | - | - | - | 68 | 1015.0 | - | - | |
| Sëlva | 1594 m | 04.09.2026, 18:45 | 16.1 | 0.0 | - | - | - | 77 | 1017.5 | - | - | |
| Sexten | 1322 m | 04.09.2026, 18:45 | 21.2 | 0.0 | 17.6 | 28.1 | SO(156.1°) | 59 | 1012.8 | 09:10 | 23 | |
| St. Magdalena in Gsies | 1414 m | 04.09.2026, 18:45 | 19.1 | 0.0 | 10.8 | 15.8 | NO(42.3°) | 57 | 1018.7 | 09:03 | 24 | |
| St. Martin in Passeier | 588 m | 04.09.2026, 18:45 | 24.1 | 0.0 | 5.0 | 7.9 | NO(23.9°) | 69 | 1015.8 | 07:43 | 21 | |
| St. Valentin a.d. Haide | 1500 m | 04.09.2026, 18:45 | 19.7 | 0.0 | 9.0 | 16.9 | S(195°) | 55 | 1014.4 | 09:11 | 23 | |
| St. Veit in Prags | 1350 m | 04.09.2026, 18:45 | 19.8 | 0.0 | - | - | - | 60 | 1016.7 | - | - | |
| St. Walburg | 1142 m | 04.09.2026, 18:45 | 24.0 | 0.0 | 6.5 | 9.7 | N(12.7°) | 52 | 1013.9 | 09:46 | 76 | |
| Sterzing | 939 m | 04.09.2026, 18:45 | 25.3 | 0.0 | 4.3 | 8.3 | S(173.5°) | 48 | 1014.0 | 10:42 | 155 | |
| Sulaneres | 698 m | 04.09.2026, 18:45 | 27.9 | 0.0 | 0.7 | 5.0 | NO(63.5°) | 53 | 1013.1 | 11:07 | 30 | |
| Sulden | 1902 m | 04.09.2026, 18:45 | 15.6 | 0.0 | - | - | - | 69 | 1016.0 | 08:10 | 20 | |
| Terenten | 1350 m | 04.09.2026, 18:45 | 23.7 | 0.0 | 11.5 | 22.0 | NW(317.3°) | 39 | 1013.0 | 10:27 | 157 | |
| Toblach | 1218 m | 04.09.2026, 18:45 | 25.3 | 0.0 | 5.0 | 7.6 | SO(144.2°) | 39 | 1013.1 | 09:50 | 158 | |
| Ulten Weißbrunn | 1883 m | 04.09.2026, 18:45 | 16.4 | 0.0 | - | - | - | 72 | 1016.6 | 10:08 | 15 | |
| Vals | 1409 m | 04.09.2026, 18:45 | 19.0 | 0.0 | 2.5 | 5.8 | NW(319.3°) | 65 | 1015.8 | 09:21 | 29 | |
| Valsperch | 1129 m | 04.09.2026, 18:45 | 24.0 | 0.0 | 7.6 | 14.0 | SV(235.1°) | 43 | 1013.7 | 11:05 | 143 | |
| Villnöss | 1327 m | 04.09.2026, 18:45 | 21.9 | 0.0 | 5.4 | 9.7 | NW(303.6°) | 56 | 1014.2 | 10:53 | 82 | |
| Völs am Schlern | 840 m | 04.09.2026, 18:45 | 27.7 | 0.0 | 5.8 | 13.3 | SV(244.4°) | 43 | 1016.3 | 09:23 | 89 | |
| Welschnofen | 1126 m | 04.09.2026, 18:45 | 24.8 | 0.0 | - | - | - | 55 | 1014.4 | 10:18 | 154 |
Lijënda di dac muserei:
t:Temperatura dl'aria (°C)
N:Prezipitazions do mesanuet (mm)
ff:Slune mesan dl vënt (km/h)
bb:Majer slune dl vënt (km/h)
dd:Direzion dl vënt
rH:Tume relatif (%)
p:Prescion dl'aria (hPa)
sd:Dureda dl surëdl (h)
EG:Raiazion dl surëdl (W/m²)